Time;durP1;ratioP1;P1;durP2;ratioP2;P2;SDS_P1;SDS_P2;PMS_P1;PMS_P2;Temp;Humidity;BMP_temperature;BMP_pressure;BME280_temperature;BME280_humidity;BME280_pressure;Samples;Min_cycle;Max_cycle;Signal;HPM_P1;HPM_P2
2024/02/02 00:00:27;;;;;;;2.70;2.40;;;;;;;2.11;100.00;100185.20;104908;1262;73071;-58
2024/02/02 00:02:55;;;;;;;3.80;2.30;;;;;;;2.07;100.00;100189.28;104934;1257;65830;-56
2024/02/02 00:05:22;;;;;;;5.50;2.20;;;;;;;2.03;100.00;100188.96;104864;1260;72474;-56
2024/02/02 00:07:50;;;;;;;2.80;1.60;;;;;;;1.99;100.00;100185.10;104918;1257;59744;-57
2024/02/02 00:10:18;;;;;;;3.40;2.00;;;;;;;1.94;100.00;100178.59;104772;1257;60355;-56
2024/02/02 00:12:47;;;;;;;3.20;2.00;;;;;;;1.88;100.00;100177.55;104685;1257;73505;-56
2024/02/02 00:15:14;;;;;;;2.60;2.00;;;;;;;1.86;100.00;100176.16;105350;1257;65228;-57
2024/02/02 00:17:42;;;;;;;2.70;2.00;;;;;;;1.85;100.00;100176.34;104795;1257;70197;-56
2024/02/02 00:20:11;;;;;;;3.50;2.20;;;;;;;1.83;100.00;100173.88;104802;1263;60943;-57
2024/02/02 00:22:38;;;;;;;3.80;2.10;;;;;;;1.83;100.00;100176.36;105429;1256;59763;-56
2024/02/02 00:25:06;;;;;;;3.40;1.70;;;;;;;1.83;100.00;100169.63;104843;1257;73017;-57
2024/02/02 00:27:33;;;;;;;2.40;1.90;;;;;;;1.82;100.00;100171.41;104804;1263;67987;-57
2024/02/02 00:30:01;;;;;;;2.80;1.80;;;;;;;1.80;100.00;100171.77;105016;1257;70912;-56
2024/02/02 00:32:28;;;;;;;5.00;1.80;;;;;;;1.76;100.00;100168.63;105517;1257;60601;-56
2024/02/02 00:34:56;;;;;;;5.50;1.40;;;;;;;1.73;100.00;100166.16;104688;1257;60128;-59
2024/02/02 00:37:23;;;;;;;5.10;2.10;;;;;;;1.68;100.00;100168.67;104669;1257;72083;-57
2024/02/02 00:39:50;;;;;;;5.10;1.80;;;;;;;1.64;100.00;100166.20;104756;1257;65638;-56
2024/02/02 00:42:18;;;;;;;3.20;1.20;;;;;;;1.62;100.00;100168.34;104605;1257;70472;-58
2024/02/02 00:44:45;;;;;;;2.00;1.50;;;;;;;1.60;100.00;100163.94;104805;1263;61347;-56
2024/02/02 00:47:12;;;;;;;7.20;2.40;;;;;;;1.59;100.00;100163.94;104897;1258;60029;-55
2024/02/02 00:49:40;;;;;;;2.00;1.50;;;;;;;1.59;100.00;100159.52;104667;1260;73163;-57
2024/02/02 00:52:07;;;;;;;3.90;1.90;;;;;;;1.59;100.00;100160.94;105512;1260;65194;-55
2024/02/02 00:54:35;;;;;;;4.70;2.20;;;;;;;1.61;100.00;100163.05;104668;1257;70586;-56
2024/02/02 00:57:02;;;;;;;5.90;2.00;;;;;;;1.62;100.00;100161.61;104856;1256;60504;-58
2024/02/02 00:59:30;;;;;;;3.70;1.80;;;;;;;1.61;100.00;100162.34;104997;1257;60541;-57
2024/02/02 01:01:57;;;;;;;4.30;1.70;;;;;;;1.60;100.00;100164.83;104662;1263;74013;-58
2024/02/02 01:04:24;;;;;;;2.80;1.30;;;;;;;1.56;100.00;100160.77;104690;1260;67924;-58
2024/02/02 01:06:53;;;;;;;5.10;1.60;;;;;;;1.52;100.00;100161.31;104730;1258;72831;-57
2024/02/02 01:09:20;;;;;;;3.40;1.20;;;;;;;1.49;100.00;100162.93;104951;1257;60877;-57
2024/02/02 01:11:48;;;;;;;2.90;1.40;;;;;;;1.45;100.00;100158.33;104920;1257;60546;-57
2024/02/02 01:14:17;;;;;;;4.00;1.40;;;;;;;1.44;100.00;100157.66;104695;1257;73886;-58
2024/02/02 01:16:44;;;;;;;4.90;1.10;;;;;;;1.43;100.00;100157.48;104897;1261;65756;-58
2024/02/02 01:19:12;;;;;;;3.30;1.00;;;;;;;1.44;100.00;100157.48;104856;1260;73186;-59
2024/02/02 01:21:39;;;;;;;1.70;1.00;;;;;;;1.47;100.00;100160.27;108784;1257;59969;-59
2024/02/02 01:24:06;;;;;;;2.90;1.20;;;;;;;1.51;100.00;100161.16;104964;1260;60439;-55
2024/02/02 01:26:35;;;;;;;6.10;1.30;;;;;;;1.56;100.00;100157.93;104919;1258;73771;-59
2024/02/02 01:29:03;;;;;;;3.20;1.40;;;;;;;1.58;100.00;100162.53;104522;1257;67042;-57
2024/02/02 01:31:30;;;;;;;3.00;1.10;;;;;;;1.61;100.00;100165.70;108792;1257;73169;-59
2024/02/02 01:33:58;;;;;;;4.40;1.40;;;;;;;1.62;100.00;100166.38;108815;1257;59315;-57
2024/02/02 01:36:25;;;;;;;2.10;1.00;;;;;;;1.61;100.00;100163.05;105463;1257;60987;-56
2024/02/02 01:38:54;;;;;;;3.10;1.10;;;;;;;1.59;100.00;100165.70;104597;1257;73091;-56
2024/02/02 01:41:22;;;;;;;4.20;1.40;;;;;;;1.57;100.00;100160.59;104749;1260;67105;-56
2024/02/02 01:43:49;;;;;;;2.60;0.90;;;;;;;1.52;100.00;100162.56;104505;1260;73139;-56
2024/02/02 01:46:17;;;;;;;4.50;1.00;;;;;;;1.47;100.00;100159.23;104729;1259;60937;-55
2024/02/02 01:48:44;;;;;;;4.30;1.30;;;;;;;1.45;100.00;100161.36;104760;1257;60615;-56
2024/02/02 01:51:12;;;;;;;4.10;1.20;;;;;;;1.44;100.00;100167.04;104659;1258;72650;-56
2024/02/02 01:53:39;;;;;;;5.80;1.10;;;;;;;1.42;100.00;100162.61;105226;1260;65918;-56
2024/02/02 01:56:07;;;;;;;3.40;0.90;;;;;;;1.42;100.00;100169.69;104435;1260;71535;-57
2024/02/02 01:58:34;;;;;;;2.90;1.20;;;;;;;1.41;100.00;100168.45;104726;1257;60413;-56
2024/02/02 02:01:01;;;;;;;3.50;0.90;;;;;;;1.43;100.00;100171.63;104880;1257;60699;-57
2024/02/02 02:03:29;;;;;;;4.00;1.00;;;;;;;1.43;100.00;100167.21;107374;1263;72040;-56
2024/02/02 02:05:57;;;;;;;5.00;1.30;;;;;;;1.43;100.00;100171.81;104622;1259;66979;-56
2024/02/02 02:08:24;;;;;;;3.20;1.00;;;;;;;1.44;100.00;100174.98;105379;1261;71442;-57
2024/02/02 02:10:52;;;;;;;2.40;1.10;;;;;;;1.44;100.00;100174.45;104464;1260;60681;-57
2024/02/02 02:13:19;;;;;;;6.10;1.10;;;;;;;1.44;100.00;100177.28;104355;1262;60424;-57
2024/02/02 02:15:46;;;;;;;3.40;1.00;;;;;;;1.44;100.00;100184.52;104507;1258;73847;-57
2024/02/02 02:18:14;;;;;;;3.90;0.90;;;;;;;1.45;100.00;100182.39;104709;1258;67974;-56
2024/02/02 02:20:41;;;;;;;2.30;1.00;;;;;;;1.47;100.00;100177.44;105045;1260;70410;-55
2024/02/02 02:23:09;;;;;;;2.20;0.90;;;;;;;1.50;100.00;100173.72;104703;1257;60417;-57
2024/02/02 02:25:36;;;;;;;2.70;0.90;;;;;;;1.54;100.00;100175.46;104697;1262;60638;-57
2024/02/02 02:28:04;;;;;;;4.30;0.90;;;;;;;1.59;100.00;100174.38;104702;1263;74326;-56
2024/02/02 02:30:31;;;;;;;2.80;1.00;;;;;;;1.63;100.00;100173.80;104455;1257;67253;-56
2024/02/02 02:32:58;;;;;;;3.90;1.00;;;;;;;1.67;100.00;100177.52;105382;1257;72418;-57
2024/02/02 02:35:26;;;;;;;3.50;1.10;;;;;;;1.72;100.00;100181.20;104719;1258;60584;-56
2024/02/02 02:37:53;;;;;;;5.70;1.00;;;;;;;1.76;100.00;100181.18;104631;1259;60367;-57
2024/02/02 02:40:20;;;;;;;1.90;0.90;;;;;;;1.80;100.00;100177.23;104602;1258;72575;-56
2024/02/02 02:42:50;;;;;;;2.60;1.20;;;;;;;1.82;100.00;100183.27;104679;1262;67047;-57
2024/02/02 02:45:17;;;;;;;2.80;1.00;;;;;;;1.83;100.00;100182.20;104637;1257;73744;-56
2024/02/02 02:47:45;;;;;;;4.30;1.20;;;;;;;1.84;100.00;100183.43;104785;1260;61199;-57
2024/02/02 02:50:13;;;;;;;1.90;0.90;;;;;;;1.85;100.00;100187.32;104873;1256;60591;-57
2024/02/02 02:52:40;;;;;;;4.00;1.20;;;;;;;1.87;100.00;100185.52;104868;1257;74504;-57
2024/02/02 02:55:07;;;;;;;3.30;0.90;;;;;;;1.91;100.00;100186.39;104795;1257;66915;-57
2024/02/02 02:57:35;;;;;;;4.60;0.90;;;;;;;1.95;100.00;100183.00;104681;1257;72955;-57
2024/02/02 03:00:04;;;;;;;2.60;1.00;;;;;;;1.99;100.00;100186.33;104889;1256;60498;-57
2024/02/02 03:02:31;;;;;;;5.90;1.00;;;;;;;2.02;100.00;100190.04;105452;1260;60623;-57
2024/02/02 03:04:59;;;;;;;2.70;1.10;;;;;;;2.03;100.00;100192.15;105026;1257;74380;-55
2024/02/02 03:07:26;;;;;;;7.10;1.20;;;;;;;2.04;100.00;100194.45;105082;1257;65807;-56
2024/02/02 03:09:53;;;;;;;5.30;1.30;;;;;;;2.04;100.00;100199.23;104869;1257;72712;-57
2024/02/02 03:12:20;;;;;;;5.70;1.90;;;;;;;2.03;100.00;100200.48;104640;1257;60516;-56
2024/02/02 03:14:48;;;;;;;3.10;1.00;;;;;;;2.03;100.00;100200.84;104824;1257;60421;-56
2024/02/02 03:17:15;;;;;;;2.70;0.90;;;;;;;2.01;100.00;100203.14;104819;1257;73876;-57
2024/02/02 03:19:43;;;;;;;4.70;1.10;;;;;;;2.02;100.00;100201.20;104759;1257;67880;-58
2024/02/02 03:22:10;;;;;;;4.60;1.20;;;;;;;2.02;100.00;100205.98;104748;1257;72632;-54
2024/02/02 03:24:37;;;;;;;5.20;2.00;;;;;;;2.03;100.00;100205.61;104859;1257;61360;-55
2024/02/02 03:27:05;;;;;;;3.60;1.20;;;;;;;2.05;100.00;100202.39;104752;1257;60578;-56
2024/02/02 03:29:32;;;;;;;7.70;1.90;;;;;;;2.07;100.00;100206.45;104697;1257;73837;-56
2024/02/02 03:32:00;;;;;;;4.80;1.60;;;;;;;2.06;100.00;100209.29;104624;1257;65656;-57
2024/02/02 03:34:27;;;;;;;2.90;1.30;;;;;;;2.04;100.00;100209.49;104496;1257;72751;-58
2024/02/02 03:36:54;;;;;;;4.00;1.30;;;;;;;2.01;100.00;100207.92;104580;1257;61872;-57
2024/02/02 03:39:22;;;;;;;3.60;1.50;;;;;;;1.95;100.00;100206.36;104802;1256;61002;-57
2024/02/02 03:41:50;;;;;;;5.90;2.00;;;;;;;1.89;100.00;100213.84;104447;1257;72200;-57
2024/02/02 03:44:17;;;;;;;3.70;1.30;;;;;;;1.83;100.00;100211.92;105455;1260;66242;-57
2024/02/02 03:46:45;;;;;;;6.50;1.20;;;;;;;1.78;100.00;100212.13;104547;1264;72704;-57
2024/02/02 03:49:12;;;;;;;3.50;1.00;;;;;;;1.73;100.00;100210.02;104577;1260;60549;-58
2024/02/02 03:51:40;;;;;;;3.40;1.00;;;;;;;1.69;100.00;100211.30;104565;1257;60597;-57
2024/02/02 03:54:07;;;;;;;4.50;1.00;;;;;;;1.66;100.00;100215.20;104482;1257;72653;-57
2024/02/02 03:56:35;;;;;;;5.00;1.50;;;;;;;1.64;100.00;100212.02;104686;1260;67548;-55
2024/02/02 03:59:02;;;;;;;4.20;1.00;;;;;;;1.62;100.00;100210.09;104622;1257;71617;-57
2024/02/02 04:01:29;;;;;;;6.70;1.10;;;;;;;1.61;100.00;100218.95;104886;1257;60512;-57
2024/02/02 04:03:57;;;;;;;5.00;1.80;;;;;;;1.59;100.00;100227.09;105613;1260;60450;-58
2024/02/02 04:06:24;;;;;;;7.20;1.40;;;;;;;1.58;100.00;100231.86;104745;1262;71435;-56
2024/02/02 04:08:52;;;;;;;3.80;1.30;;;;;;;1.54;100.00;100232.06;104636;1257;66184;-58
2024/02/02 04:11:19;;;;;;;4.40;1.00;;;;;;;1.50;100.00;100236.85;104755;1262;71417;-56
2024/02/02 04:13:46;;;;;;;3.60;1.10;;;;;;;1.45;100.00;100237.05;104559;1262;60704;-57
2024/02/02 04:16:14;;;;;;;5.30;0.90;;;;;;;1.40;100.00;100241.13;104575;1257;62287;-57
2024/02/02 04:18:41;;;;;;;4.40;1.00;;;;;;;1.36;100.00;100240.80;104803;1257;72700;-58
2024/02/02 04:21:09;;;;;;;2.70;0.80;;;;;;;1.34;100.00;100251.59;105634;1257;65686;-58
2024/02/02 04:23:36;;;;;;;3.70;0.90;;;;;;;1.33;100.00;100249.65;104678;1261;71638;-57
2024/02/02 04:26:04;;;;;;;3.80;1.40;;;;;;;1.32;100.00;100247.89;104648;1257;60437;-57
2024/02/02 04:28:31;;;;;;;3.80;0.90;;;;;;;1.34;100.00;100256.38;104625;1257;60425;-54
2024/02/02 04:30:58;;;;;;;4.20;0.80;;;;;;;1.36;100.00;100260.07;104798;1257;73855;-57
2024/02/02 04:33:26;;;;;;;5.20;0.90;;;;;;;1.38;100.00;100264.48;104648;1258;67177;-56
2024/02/02 04:35:53;;;;;;;7.30;1.00;;;;;;;1.38;100.00;100268.72;108905;1256;72745;-58
2024/02/02 04:38:20;;;;;;;7.20;0.80;;;;;;;1.38;100.00;100266.95;108804;1256;61498;-57
2024/02/02 04:40:48;;;;;;;5.00;0.70;;;;;;;1.38;100.00;100272.96;108771;1256;58801;-58
2024/02/02 04:43:16;;;;;;;2.60;0.70;;;;;;;1.35;100.00;100274.59;106766;1260;74286;-56
2024/02/02 04:45:43;;;;;;;3.50;0.60;;;;;;;1.33;100.00;100278.65;108826;1256;69557;-58
2024/02/02 04:48:11;;;;;;;4.80;0.60;;;;;;;1.32;100.00;100282.54;108755;1257;70702;-58
2024/02/02 04:50:38;;;;;;;2.70;0.50;;;;;;;1.32;100.00;100278.83;108796;1256;61074;-57
2024/02/02 04:53:06;;;;;;;4.80;0.60;;;;;;;1.33;100.00;100281.48;108785;1257;59168;-58
2024/02/02 04:55:34;;;;;;;1.20;0.50;;;;;;;1.34;100.00;100285.02;108792;1257;73841;-58
2024/02/02 04:58:01;;;;;;;5.00;0.60;;;;;;;1.36;100.00;100291.55;106211;1257;66630;-57
2024/02/02 05:00:29;;;;;;;3.30;0.60;;;;;;;1.37;100.00;100292.59;104989;1260;70878;-57
2024/02/02 05:02:56;;;;;;;5.30;0.70;;;;;;;1.38;100.00;100290.83;104819;1263;60550;-55
2024/02/02 05:05:23;;;;;;;2.90;0.50;;;;;;;1.38;100.00;100292.23;108642;1256;61744;-57
2024/02/02 05:07:51;;;;;;;2.60;0.60;;;;;;;1.37;100.00;100295.78;105479;1257;73859;-56
2024/02/02 05:10:18;;;;;;;2.40;0.60;;;;;;;1.36;100.00;100299.52;108826;1256;67554;-58
2024/02/02 05:12:45;;;;;;;1.60;0.40;;;;;;;1.32;100.00;100300.39;108769;1260;73078;-58
2024/02/02 05:15:13;;;;;;;2.80;0.40;;;;;;;1.26;100.00;100302.89;106181;1260;60457;-56
2024/02/02 05:17:40;;;;;;;1.80;0.50;;;;;;;1.21;100.00;100305.19;104568;1258;60540;-57
2024/02/02 05:20:08;;;;;;;2.70;0.50;;;;;;;1.18;100.00;100309.45;105152;1258;71650;-58
2024/02/02 05:22:35;;;;;;;5.50;0.60;;;;;;;1.14;100.00;100311.73;104797;1257;69743;-57
2024/02/02 05:25:03;;;;;;;3.00;0.50;;;;;;;1.11;100.00;100316.16;104570;1257;72815;-58
2024/02/02 05:27:31;;;;;;;6.90;0.60;;;;;;;1.09;100.00;100317.24;105845;1261;60828;-56
2024/02/02 05:29:59;;;;;;;3.60;0.60;;;;;;;1.08;100.00;100314.23;108747;1256;60069;-58
2024/02/02 05:32:26;;;;;;;1.20;0.30;;;;;;;1.07;100.00;100322.18;105551;1262;72904;-57
2024/02/02 05:34:54;;;;;;;4.40;0.60;;;;;;;1.09;100.00;100323.95;104593;1256;66745;-58
2024/02/02 05:37:21;;;;;;;6.10;1.50;;;;;;;1.12;100.00;100332.41;104783;1257;72701;-58
2024/02/02 05:39:48;;;;;;;4.40;0.50;;;;;;;1.13;100.00;100331.54;104654;1257;60503;-58
2024/02/02 05:42:16;;;;;;;2.90;0.50;;;;;;;1.14;100.00;100340.91;104667;1257;60526;-52
2024/02/02 05:44:44;;;;;;;5.70;0.60;;;;;;;1.13;100.00;100342.50;104500;1258;71621;-57
2024/02/02 05:47:12;;;;;;;3.00;0.60;;;;;;;1.13;100.00;100350.27;104357;1259;66978;-53
2024/02/02 05:49:39;;;;;;;3.40;0.80;;;;;;;1.12;100.00;100356.29;105129;1258;72702;-56
2024/02/02 05:52:08;;;;;;;3.00;0.70;;;;;;;1.12;100.00;100360.52;104614;1260;60540;-58
2024/02/02 05:54:36;;;;;;;2.60;0.60;;;;;;;1.12;100.00;100354.51;104662;1257;60447;-58
2024/02/02 05:57:03;;;;;;;3.30;0.50;;;;;;;1.13;100.00;100358.23;104811;1262;73797;-58
2024/02/02 05:59:31;;;;;;;5.10;0.40;;;;;;;1.14;100.00;100364.77;104863;1257;65142;-59
2024/02/02 06:01:58;;;;;;;1.40;0.40;;;;;;;1.18;100.00;100368.50;104650;1257;71457;-57
2024/02/02 06:04:26;;;;;;;3.10;0.40;;;;;;;1.22;100.00;100368.48;104929;1257;60478;-57
2024/02/02 06:06:53;;;;;;;4.00;0.70;;;;;;;1.26;100.00;100364.41;104823;1261;60296;-59
2024/02/02 06:09:21;;;;;;;1.90;0.60;;;;;;;1.29;100.00;100363.34;105428;1262;75153;-59
2024/02/02 06:11:48;;;;;;;3.50;0.60;;;;;;;1.31;100.00;100360.86;104956;1256;65610;-60
2024/02/02 06:14:16;;;;;;;7.50;0.70;;;;;;;1.33;100.00;100366.00;104726;1257;70425;-58
2024/02/02 06:16:43;;;;;;;3.10;0.60;;;;;;;1.35;100.00;100374.14;104790;1262;60508;-57
2024/02/02 06:19:10;;;;;;;4.00;0.60;;;;;;;1.35;100.00;100374.85;104828;1257;60527;-57
2024/02/02 06:21:38;;;;;;;2.60;0.40;;;;;;;1.35;100.00;100385.81;105083;1261;74110;-57
2024/02/02 06:24:07;;;;;;;2.80;0.60;;;;;;;1.37;100.00;100390.91;105092;1254;66665;-58
2024/02/02 06:26:36;;;;;;;3.90;0.50;;;;;;;1.38;100.00;100390.21;105629;1259;73720;-57
2024/02/02 06:29:04;;;;;;;4.10;0.60;;;;;;;1.42;100.00;100388.63;105096;1254;61028;-57
2024/02/02 06:31:32;;;;;;;4.20;0.50;;;;;;;1.44;100.00;100387.91;104993;1258;60386;-58
2024/02/02 06:33:59;;;;;;;2.00;0.50;;;;;;;1.49;100.00;100385.95;105008;1256;73878;-58
2024/02/02 06:36:28;;;;;;;2.80;0.50;;;;;;;1.54;100.00;100391.25;104865;1254;68265;-59
2024/02/02 06:38:58;;;;;;;2.80;0.40;;;;;;;1.60;100.00;100393.89;104967;1254;70514;-58
2024/02/02 06:41:25;;;;;;;3.80;0.40;;;;;;;1.67;100.00;100399.20;105019;1257;60558;-57
2024/02/02 06:43:53;;;;;;;1.70;0.50;;;;;;;1.73;100.00;100399.70;104841;1258;60495;-58
2024/02/02 06:46:20;;;;;;;3.00;0.60;;;;;;;1.78;100.00;100404.30;104864;1254;73960;-57
2024/02/02 06:48:47;;;;;;;4.40;0.50;;;;;;;1.80;100.00;100404.63;104944;1254;66255;-58
2024/02/02 06:51:15;;;;;;;4.50;0.60;;;;;;;1.80;100.00;100408.70;104610;1254;73161;-58
2024/02/02 06:53:43;;;;;;;5.90;0.70;;;;;;;1.81;100.00;100410.30;104781;1254;61808;-57
2024/02/02 06:56:30;;;;;;;1.80;0.40;;;;;;;1.84;100.00;100415.61;105291;1254;60458;-58
2024/02/02 06:58:57;;;;;;;3.90;0.80;;;;;;;1.87;100.00;100420.73;104764;1254;72633;-58
2024/02/02 07:01:25;;;;;;;7.10;0.60;;;;;;;1.92;100.00;100420.19;104801;1254;66232;-57
2024/02/02 07:03:53;;;;;;;2.60;0.50;;;;;;;1.96;100.00;100419.82;105038;1254;72647;-58
2024/02/02 07:06:20;;;;;;;2.50;0.50;;;;;;;1.98;100.00;100429.90;104711;1254;60412;-59
2024/02/02 07:08:48;;;;;;;6.20;0.60;;;;;;;1.98;100.00;100428.83;104667;1259;60620;-58
2024/02/02 07:11:43;;;;;;;4.60;0.60;;;;;;;1.97;100.00;100430.78;104772;1254;72629;-58
2024/02/02 07:14:10;;;;;;;4.70;0.70;;;;;;;1.97;100.00;100433.97;108974;1254;67841;-59
2024/02/02 07:16:37;;;;;;;4.20;0.90;;;;;;;2.01;100.00;100432.38;108817;1256;73254;-59
2024/02/02 07:19:13;;;;;;;9.00;1.40;;;;;;;2.07;100.00;100429.69;109158;1254;58406;-59
2024/02/02 07:21:40;;;;;;;5.70;0.70;;;;;;;2.16;100.00;100433.56;108771;1254;59051;-59
2024/02/02 07:24:08;;;;;;;9.30;0.80;;;;;;;2.22;100.00;100430.89;108858;1254;73752;-59
2024/02/02 07:26:36;;;;;;;4.90;1.00;;;;;;;2.26;100.00;100432.64;104838;1259;65661;-58
2024/02/02 07:29:05;;;;;;;7.50;0.70;;;;;;;2.29;100.00;100435.30;108995;1254;71106;-59
2024/02/02 07:31:47;;;;;;;3.80;0.80;;;;;;;2.32;100.00;100435.98;108898;1254;58285;-59
2024/02/02 07:34:45;;;;;;;4.40;0.60;;;;;;;2.34;100.00;100435.09;108962;1260;60094;-59
2024/02/02 07:37:45;;;;;;;4.30;0.70;;;;;;;2.34;100.00;100443.59;108969;1254;74117;-59
2024/02/02 07:40:50;;;;;;;5.40;0.40;;;;;;;2.36;100.00;100442.17;108747;1254;66029;-60
2024/02/02 07:43:17;;;;;;;4.90;0.60;;;;;;;2.40;100.00;100447.45;106893;1259;73080;-55
2024/02/02 07:45:44;;;;;;;2.30;0.50;;;;;;;2.44;100.00;100441.42;104965;1254;60482;-56
2024/02/02 07:48:11;;;;;;;3.40;0.60;;;;;;;2.50;100.00;100447.23;105108;1260;60369;-57
2024/02/02 07:50:39;;;;;;;2.70;0.70;;;;;;;2.55;100.00;100442.44;104862;1259;74307;-56
2024/02/02 07:53:06;;;;;;;3.00;0.50;;;;;;;2.57;100.00;100444.18;104949;1254;67019;-57
2024/02/02 07:55:34;;;;;;;4.20;0.50;;;;;;;2.62;100.00;100443.81;105112;1259;71265;-56
2024/02/02 07:58:01;;;;;;;6.60;0.50;;;;;;;2.68;100.00;100446.09;105064;1256;60565;-57
2024/02/02 08:00:30;;;;;;;4.90;0.40;;;;;;;2.69;100.00;100450.70;108934;1254;59127;-60
2024/02/02 08:02:58;;;;;;;5.00;0.70;;;;;;;2.68;100.00;100449.81;108858;1254;73900;-58
2024/02/02 08:05:27;;;;;;;2.50;0.50;;;;;;;2.67;100.00;100447.16;105261;1258;65808;-57
2024/02/02 08:07:54;;;;;;;7.30;0.50;;;;;;;2.70;100.00;100446.09;106270;1257;72675;-57
2024/02/02 08:10:22;;;;;;;4.40;0.60;;;;;;;2.73;100.00;100447.83;105243;1254;60439;-58
2024/02/02 08:12:49;;;;;;;2.20;0.50;;;;;;;2.76;100.00;100447.81;105174;1259;61189;-56
2024/02/02 08:15:16;;;;;;;3.30;0.50;;;;;;;2.80;100.00;100447.98;105090;1260;73250;-57
2024/02/02 08:17:44;;;;;;;2.50;0.50;;;;;;;2.84;100.00;100452.19;105097;1259;65861;-59
2024/02/02 08:20:12;;;;;;;6.00;0.70;;;;;;;2.88;100.00;100456.08;104946;1254;72737;-58
2024/02/02 08:22:39;;;;;;;4.90;0.60;;;;;;;2.92;100.00;100453.73;105862;1259;60658;-58
2024/02/02 08:25:07;;;;;;;4.20;0.40;;;;;;;2.96;100.00;100462.77;105153;1254;60472;-57
2024/02/02 08:27:34;;;;;;;3.10;0.60;;;;;;;2.98;100.00;100462.04;104874;1260;73995;-57
2024/02/02 08:30:02;;;;;;;4.10;0.60;;;;;;;3.05;100.00;100468.38;104930;1259;67508;-56
2024/02/02 08:32:30;;;;;;;3.50;0.50;;;;;;;3.14;100.00;100468.14;105364;1259;73604;-59
2024/02/02 08:34:58;;;;;;;6.70;0.60;;;;;;;3.22;100.00;100475.17;105141;1257;60548;-58
2024/02/02 08:37:26;;;;;;;3.70;0.70;;;;;;;3.27;100.00;100483.65;104661;1262;61407;-58
2024/02/02 08:39:56;;;;;;;1.50;0.50;;;;;;;3.26;100.00;100478.69;104874;1258;73895;-57
2024/02/02 08:42:24;;;;;;;5.30;0.60;;;;;;;3.28;100.00;100482.42;105012;1254;67437;-59
2024/02/02 08:44:53;;;;;;;4.90;0.60;;;;;;;3.30;100.00;100481.52;105093;1254;72739;-57
2024/02/02 08:47:21;;;;;;;3.60;0.70;;;;;;;3.31;100.00;100481.86;105593;1259;60591;-57
2024/02/02 08:49:55;;;;;;;2.30;0.60;;;;;;;3.31;100.00;100487.71;105059;1257;61086;-56
2024/02/02 08:52:33;;;;;;;6.20;0.70;;;;;;;3.30;100.00;100490.92;105049;1260;72140;-61
2024/02/02 08:55:03;;;;;;;5.80;0.50;;;;;;;3.26;100.00;100490.05;104976;1254;68156;-57
2024/02/02 08:57:55;;;;;;;3.50;0.50;;;;;;;3.24;100.00;100489.70;105093;1260;72681;-56
2024/02/02 09:00:38;;;;;;;1.30;0.40;;;;;;;3.22;100.00;100494.35;104692;1259;290822;-59
2024/02/02 09:03:53;;;;;;;6.90;0.60;;;;;;;3.18;100.00;100587.10;101936;1295;600214;-57
2024/02/02 09:06:40;;;;;;;2.50;0.50;;;;;;;3.16;100.00;100586.59;103992;1267;59308;-57
2024/02/02 09:09:11;;;;;;;4.70;0.50;;;;;;;3.14;100.00;100574.73;104431;1272;59225;-57
2024/02/02 09:11:39;;;;;;;6.90;1.00;;;;;;;3.12;100.00;100572.44;103980;1273;71100;-55
2024/02/02 09:14:08;;;;;;;4.00;0.50;;;;;;;3.09;100.00;100562.16;104180;1267;65115;-57
2024/02/02 09:16:43;;;;;;;13.00;3.50;;;;;;;3.03;100.00;100556.35;104193;1272;203069;-57
2024/02/02 09:19:27;;;;;;;6.60;1.00;;;;;;;3.01;100.00;100556.70;104939;1267;59298;-56
2024/02/02 09:22:02;;;;;;;6.90;0.60;;;;;;;2.99;100.00;100550.67;105106;1269;59368;-58
2024/02/02 09:24:43;;;;;;;1.50;0.40;;;;;;;2.98;100.00;100543.94;104282;1264;71011;-57
2024/02/02 09:27:20;;;;;;;6.40;2.10;;;;;;;2.97;100.00;100539.17;104345;1264;65665;-57
2024/02/02 09:29:48;;;;;;;5.80;1.50;;;;;;;2.95;100.00;100535.99;104020;1269;71565;-59
2024/02/02 09:32:16;;;;;;;6.50;1.70;;;;;;;2.94;100.00;100531.57;104975;1264;59707;-57
2024/02/02 09:34:44;;;;;;;2.80;0.70;;;;;;;2.92;100.00;100525.72;104536;1268;61077;-57
2024/02/02 09:37:24;;;;;;;5.00;1.40;;;;;;;2.90;100.00;100524.84;105167;1269;71210;-59
2024/02/02 09:39:56;;;;;;;1.40;0.60;;;;;;;2.90;100.00;100525.20;104060;1264;67319;-58
2024/02/02 09:42:26;;;;;;;5.50;0.40;;;;;;;2.89;100.00;100515.45;104313;1268;72818;-56
2024/02/02 09:44:59;;;;;;;3.50;0.50;;;;;;;2.89;100.00;100517.21;104568;1264;59867;-56
2024/02/02 09:47:48;;;;;;;1.60;0.40;;;;;;;2.91;100.00;100515.80;104290;1269;60946;-57
2024/02/02 09:50:19;;;;;;;4.20;0.70;;;;;;;2.94;100.00;100522.52;104897;1263;71917;-58
2024/02/02 09:52:56;;;;;;;6.00;0.60;;;;;;;2.98;100.00;100526.04;106741;1262;65812;-56
2024/02/02 09:55:45;;;;;;;6.00;0.50;;;;;;;3.00;100.00;100531.52;104843;1258;71450;-56
2024/02/02 09:58:46;;;;;;;1.90;0.40;;;;;;;3.03;100.00;100539.50;104856;1261;61593;-57
2024/02/02 10:01:23;;;;;;;3.70;0.40;;;;;;;3.03;100.00;100539.14;104700;1258;60274;-58
2024/02/02 10:04:12;;;;;;;3.00;0.30;;;;;;;3.05;100.00;100539.67;104726;1260;71858;-56
2024/02/02 10:07:25;;;;;;;5.90;0.40;;;;;;;3.06;100.00;100535.95;105134;1261;66266;-59
2024/02/02 10:10:01;;;;;;;2.70;0.40;;;;;;;3.09;100.00;100543.00;104211;1261;72719;-57
2024/02/02 10:13:03;;;;;;;3.30;0.30;;;;;;;3.11;100.00;100540.88;104924;1263;59726;-56
2024/02/02 10:16:05;;;;;;;0.90;0.40;;;;;;;3.11;100.00;100539.27;104560;1263;60120;-57
2024/02/02 10:18:58;;;;;;;3.30;0.40;;;;;;;3.11;100.00;100540.70;104864;1257;71868;-57
2024/02/02 10:22:02;;;;;;;2.20;0.50;;;;;;;3.13;100.00;100538.39;104908;1260;65991;-59
2024/02/02 10:24:50;;;;;;;4.10;0.50;;;;;;;3.16;100.00;100541.02;104221;1270;75141;-59
2024/02/02 10:27:37;;;;;;;2.20;0.40;;;;;;;3.15;100.00;100542.09;104417;1263;59755;-56
2024/02/02 10:30:21;;;;;;;3.60;0.50;;;;;;;3.14;100.00;100544.23;108793;1257;58832;-59
2024/02/02 10:32:59;;;;;;;3.30;0.50;;;;;;;3.15;100.00;100544.76;108728;1257;73073;-58
2024/02/02 10:35:35;;;;;;;4.80;0.40;;;;;;;3.12;100.00;100549.92;108647;1258;66139;-59
2024/02/02 10:38:34;;;;;;;2.90;0.40;;;;;;;3.09;100.00;100546.55;108630;1257;72749;-59
2024/02/02 10:41:41;;;;;;;2.70;0.50;;;;;;;3.07;100.00;100549.92;107848;1260;60039;-58
2024/02/02 10:44:33;;;;;;;5.20;0.50;;;;;;;3.10;100.00;100553.46;108793;1261;60069;-59
2024/02/02 10:47:04;;;;;;;;;;;;;;;3.17;100.00;100549.52;108643;1263;71850;-59
2024/02/02 10:49:36;;;;;;;1.20;0.30;;;;;;;3.22;100.00;100549.52;108745;1258;65864;-59
2024/02/02 10:52:09;;;;;;;3.60;0.50;;;;;;;3.23;100.00;100554.27;108795;1257;72768;-59
2024/02/02 10:55:01;;;;;;;4.20;1.10;;;;;;;3.28;100.00;100553.01;108605;1260;59407;-58
2024/02/02 10:57:35;;;;;;;2.40;0.50;;;;;;;3.33;100.00;100560.23;108835;1258;58961;-58
2024/02/02 11:00:13;;;;;;;2.10;0.60;;;;;;;3.35;100.00;100557.92;108718;1260;73609;-58
2024/02/02 11:02:56;;;;;;;4.60;0.60;;;;;;;3.35;100.00;100562.55;108700;1262;65610;-60
2024/02/02 11:05:41;;;;;;;3.80;0.50;;;;;;;3.31;100.00;100560.45;108603;1263;72802;-58
2024/02/02 11:08:11;;;;;;;5.80;0.60;;;;;;;3.27;100.00;100562.95;105033;1270;59552;-59
2024/02/02 11:10:59;;;;;;;2.90;0.80;;;;;;;3.22;100.00;100558.02;104841;1258;59663;-56
2024/02/02 11:13:51;;;;;;;6.90;0.70;;;;;;;3.21;100.00;100557.49;104752;1263;71883;-57
2024/02/02 11:16:41;;;;;;;7.00;0.80;;;;;;;3.21;100.00;100559.62;104929;1259;64758;-57
2024/02/02 11:19:17;;;;;;;4.60;0.90;;;;;;;3.23;100.00;100562.98;104626;1263;70928;-57
2024/02/02 11:22:00;;;;;;;7.10;1.30;;;;;;;3.21;100.00;100564.94;104632;1263;59720;-54
2024/02/02 11:24:50;;;;;;;2.20;0.60;;;;;;;3.19;100.00;100558.55;104725;1264;59625;-57
2024/02/02 11:27:34;;;;;;;4.00;0.50;;;;;;;3.20;100.00;100561.39;104435;1256;72051;-57
2024/02/02 11:30:06;;;;;;;2.00;0.30;;;;;;;3.22;100.00;100561.39;105020;1263;67099;-60
2024/02/02 11:33:11;;;;;;;8.30;1.10;;;;;;;3.24;100.00;100560.30;105235;1262;73301;-54
2024/02/02 11:36:12;;;;;;;1.90;0.50;;;;;;;3.28;100.00;100566.48;104981;1261;59614;-57